createdAt,value
2023-03-18T00:00:34.481Z,20.05
2023-03-18T00:03:08.784Z,16.42
2023-03-18T00:06:01.783Z,16.05
2023-03-18T00:08:35.140Z,15.60
2023-03-18T00:11:02.743Z,17.38
2023-03-18T00:13:30.293Z,17.25
2023-03-18T00:15:58.001Z,13.45
2023-03-18T00:18:25.764Z,18.92
2023-03-18T00:20:53.305Z,19.77
2023-03-18T00:23:23.033Z,17.40
2023-03-18T00:25:53.441Z,17.65
2023-03-18T00:28:21.203Z,16.38
2023-03-18T00:30:49.675Z,18.85
2023-03-18T00:33:17.865Z,14.32
2023-03-18T00:35:48.871Z,17.80
2023-03-18T00:38:23.007Z,16.25
2023-03-18T00:41:01.575Z,15.88
2023-03-18T00:43:33.965Z,17.23
2023-03-18T00:46:01.725Z,16.27
2023-03-18T00:48:29.851Z,19.83
2023-03-18T00:53:54.853Z,14.50
2023-03-18T00:56:25.597Z,14.18
2023-03-18T01:02:11.641Z,18.17
2023-03-18T01:04:39.614Z,16.15
2023-03-18T01:07:07.513Z,17.33
2023-03-18T01:09:35.124Z,16.27
2023-03-18T01:12:03.973Z,17.52
2023-03-18T01:14:31.481Z,20.70
2023-03-18T01:16:59.041Z,18.23
2023-03-18T01:19:26.788Z,15.68
2023-03-18T01:21:54.727Z,14.60
2023-03-18T01:24:24.542Z,14.18
2023-03-18T01:26:52.105Z,17.25
2023-03-18T01:29:23.412Z,14.98
2023-03-18T01:31:51.402Z,16.35
2023-03-18T01:34:19.472Z,17.67
2023-03-18T01:36:48.009Z,19.15
2023-03-18T01:39:17.810Z,12.95
2023-03-18T01:41:45.799Z,15.43
2023-03-18T01:44:15.736Z,20.23
2023-03-18T01:46:47.116Z,14.73
2023-03-18T01:49:17.616Z,15.48
2023-03-18T01:51:47.498Z,13.20
2023-03-18T01:54:16.484Z,12.50
2023-03-18T01:56:45.264Z,15.32
2023-03-18T01:59:14.017Z,17.92
2023-03-18T02:01:43.841Z,15.35
2023-03-18T02:04:12.806Z,14.50
2023-03-18T02:06:40.535Z,14.13
2023-03-18T02:09:08.217Z,15.90
2023-03-18T02:11:38.230Z,13.82
2023-03-18T02:14:10.818Z,13.93
2023-03-18T02:16:41.473Z,15.15
2023-03-18T02:19:12.188Z,17.48
2023-03-18T02:21:44.983Z,12.95
2023-03-18T02:24:24.104Z,12.13
2023-03-18T02:26:55.122Z,11.55
2023-03-18T02:32:16.580Z,15.85
2023-03-18T02:34:45.235Z,15.13
2023-03-18T02:37:12.798Z,11.20
2023-03-18T02:39:41.033Z,14.43
2023-03-18T02:42:08.652Z,15.57
2023-03-18T02:44:40.375Z,13.07
2023-03-18T02:47:11.664Z,11.75
2023-03-18T02:49:39.344Z,9.82
2023-03-18T02:52:10.015Z,11.60
2023-03-18T02:54:37.569Z,10.40
2023-03-18T02:57:05.161Z,12.85
2023-03-18T02:59:32.661Z,20.90
2023-03-18T03:02:02.166Z,10.98
2023-03-18T03:04:29.685Z,10.55
2023-03-18T03:06:57.928Z,12.48
2023-03-18T03:09:26.145Z,14.07
2023-03-18T03:11:53.738Z,9.27
2023-03-18T03:14:21.697Z,15.05
2023-03-18T03:16:50.112Z,13.27
2023-03-18T03:19:19.045Z,12.52
2023-03-18T03:21:46.578Z,13.18
2023-03-18T03:24:14.479Z,13.90
2023-03-18T03:26:42.516Z,11.52
2023-03-18T03:29:12.357Z,9.75
2023-03-18T03:31:39.903Z,13.52
2023-03-18T03:34:07.647Z,10.55
2023-03-18T03:36:37.430Z,12.80
2023-03-18T03:39:06.332Z,11.25
2023-03-18T03:41:33.975Z,8.65
2023-03-18T03:44:01.469Z,9.27
2023-03-18T03:49:20.307Z,9.43
2023-03-18T03:51:49.177Z,15.73
2023-03-18T03:54:16.753Z,9.85
2023-03-18T03:56:44.508Z,6.40
2023-03-18T03:59:11.993Z,9.93
2023-03-18T04:01:39.473Z,14.23
2023-03-18T04:04:07.051Z,7.72
2023-03-18T04:06:34.589Z,8.18
2023-03-18T04:09:04.348Z,12.52
2023-03-18T04:11:32.163Z,7.80
2023-03-18T04:13:59.651Z,9.77
2023-03-18T04:16:27.535Z,8.98
2023-03-18T04:18:55.139Z,8.07
2023-03-18T04:21:23.304Z,9.55
2023-03-18T04:23:50.992Z,11.52
2023-03-18T04:29:36.338Z,9.57
2023-03-18T04:32:29.136Z,9.20
2023-03-18T04:35:23.300Z,8.32
2023-03-18T04:37:51.257Z,9.88
2023-03-18T04:40:20.039Z,9.63
2023-03-18T04:42:48.918Z,6.95
2023-03-18T04:45:16.888Z,8.95
2023-03-18T04:47:45.331Z,10.65
2023-03-18T04:50:13.922Z,12.93
2023-03-18T04:52:42.002Z,8.27
2023-03-18T04:55:14.146Z,9.63
2023-03-18T04:57:42.691Z,7.97
2023-03-18T05:00:13.794Z,9.95
2023-03-18T05:02:41.394Z,9.75
2023-03-18T05:05:09.633Z,8.32
2023-03-18T05:07:37.621Z,7.05
2023-03-18T05:10:06.887Z,11.15
2023-03-18T05:12:34.936Z,13.52
2023-03-18T05:15:02.438Z,7.55
2023-03-18T05:17:35.312Z,8.45
2023-03-18T05:20:04.459Z,7.55
2023-03-18T05:22:32.042Z,8.52
2023-03-18T05:24:59.645Z,8.25
2023-03-18T05:27:28.376Z,10.75
2023-03-18T05:29:56.244Z,10.30
2023-03-18T05:32:24.079Z,7.13
2023-03-18T05:34:52.990Z,13.07
2023-03-18T05:37:20.574Z,9.43
2023-03-18T05:39:48.165Z,7.32
2023-03-18T05:42:15.663Z,5.90
2023-03-18T05:44:43.191Z,9.52
2023-03-18T05:47:12.102Z,10.45
2023-03-18T05:49:40.725Z,11.73
2023-03-18T05:52:10.237Z,5.32
2023-03-18T05:54:40.605Z,6.47
2023-03-18T05:57:09.069Z,10.13
2023-03-18T05:59:37.888Z,7.43
2023-03-18T06:02:05.542Z,7.22
2023-03-18T06:04:33.128Z,6.68
2023-03-18T06:07:06.179Z,10.23
2023-03-18T06:09:39.265Z,6.50
2023-03-18T06:12:07.435Z,16.60
2023-03-18T06:14:35.443Z,6.97
2023-03-18T06:17:02.973Z,7.60
2023-03-18T06:19:32.417Z,6.78
2023-03-18T06:22:00.377Z,8.88
2023-03-18T06:24:31.996Z,8.35
2023-03-18T06:27:01.638Z,7.32
2023-03-18T06:29:31.008Z,9.60
2023-03-18T06:31:58.473Z,8.05
2023-03-18T06:34:26.305Z,6.25
2023-03-18T06:36:53.859Z,7.43
2023-03-18T06:39:21.401Z,9.10
2023-03-18T06:41:48.947Z,6.97
2023-03-18T06:44:17.870Z,6.35
2023-03-18T06:46:45.340Z,8.77
2023-03-18T06:49:13.199Z,7.00
2023-03-18T06:51:40.674Z,6.88
2023-03-18T06:54:09.523Z,6.53
2023-03-18T06:56:39.112Z,8.65
2023-03-18T06:59:08.089Z,10.65
2023-03-18T07:01:37.411Z,7.32
2023-03-18T07:04:07.009Z,5.43
2023-03-18T07:06:34.849Z,5.63
2023-03-18T07:09:03.884Z,10.25
2023-03-18T07:11:31.563Z,8.02
2023-03-18T07:13:59.673Z,9.02
2023-03-18T07:16:27.591Z,8.20
2023-03-18T07:18:58.409Z,5.47
2023-03-18T07:21:26.087Z,5.95
2023-03-18T07:23:55.576Z,7.53
2023-03-18T07:26:24.159Z,8.15
2023-03-18T07:28:51.959Z,8.20
2023-03-18T07:31:19.777Z,9.88
2023-03-18T07:33:51.926Z,10.50
2023-03-18T07:36:23.050Z,8.52
2023-03-18T07:38:50.622Z,7.97
2023-03-18T07:41:27.151Z,7.28
2023-03-18T07:43:55.459Z,7.57
2023-03-18T07:46:23.358Z,8.32
2023-03-18T07:48:57.020Z,5.93
2023-03-18T07:51:26.401Z,9.88
2023-03-18T07:53:54.106Z,7.18
2023-03-18T07:56:22.021Z,7.50
2023-03-18T07:58:49.547Z,7.05
2023-03-18T08:01:18.500Z,8.38
2023-03-18T08:03:46.814Z,7.35
2023-03-18T08:06:15.358Z,4.75
2023-03-18T08:08:45.542Z,3.80
2023-03-18T08:11:14.812Z,11.85
2023-03-18T08:13:43.316Z,5.55
2023-03-18T08:16:13.778Z,3.85
2023-03-18T08:18:41.837Z,7.53
2023-03-18T08:21:09.591Z,6.47
2023-03-18T08:23:41.431Z,5.57
2023-03-18T08:26:10.887Z,14.60
2023-03-18T08:28:42.230Z,9.75
2023-03-18T08:31:10.006Z,10.32
2023-03-18T08:33:37.778Z,4.80
2023-03-18T08:36:06.239Z,6.57
2023-03-18T08:38:33.865Z,5.57
2023-03-18T08:41:04.297Z,5.80
2023-03-18T08:43:33.297Z,4.50
2023-03-18T08:46:01.058Z,6.50
2023-03-18T08:48:31.504Z,7.15
2023-03-18T08:50:59.142Z,7.05
2023-03-18T08:53:26.685Z,6.03
2023-03-18T08:55:54.550Z,5.03
2023-03-18T08:58:22.700Z,8.45
2023-03-18T09:00:52.163Z,7.95
2023-03-18T09:03:19.736Z,5.05
2023-03-18T09:05:49.048Z,5.57
2023-03-18T09:08:16.594Z,8.35
2023-03-18T09:10:49.001Z,9.02
2023-03-18T09:13:16.553Z,5.97
2023-03-18T09:15:47.233Z,6.57
2023-03-18T09:18:16.566Z,7.47
2023-03-18T09:20:49.874Z,4.45
2023-03-18T09:23:18.365Z,6.40
2023-03-18T09:25:46.888Z,5.85
2023-03-18T09:28:14.862Z,5.63
2023-03-18T09:30:43.512Z,5.75
2023-03-18T09:33:11.844Z,8.10
2023-03-18T09:35:44.100Z,6.15
2023-03-18T09:38:14.732Z,4.18
2023-03-18T09:40:51.185Z,6.20
2023-03-18T09:43:24.646Z,5.78
2023-03-18T09:46:00.639Z,7.37
2023-03-18T09:48:44.811Z,6.13
2023-03-18T09:51:21.682Z,6.40
2023-03-18T09:53:53.431Z,4.05
2023-03-18T09:56:23.968Z,6.18
2023-03-18T09:58:53.892Z,8.95
2023-03-18T10:01:23.885Z,4.25
2023-03-18T10:03:52.612Z,3.83
2023-03-18T10:06:22.806Z,7.10
2023-03-18T10:08:56.674Z,7.45
2023-03-18T10:11:27.472Z,5.50
2023-03-18T10:13:58.324Z,5.60
2023-03-18T10:16:28.305Z,5.30
2023-03-18T10:18:58.299Z,5.45
2023-03-18T10:21:31.014Z,5.43
2023-03-18T10:24:07.175Z,7.82
2023-03-18T10:26:41.993Z,7.60
2023-03-18T10:29:27.320Z,5.85
2023-03-18T10:32:00.930Z,2.60
2023-03-18T10:34:31.843Z,4.40
2023-03-18T10:37:07.065Z,4.95
2023-03-18T10:39:36.397Z,4.85
2023-03-18T10:42:16.308Z,4.85
2023-03-18T10:44:43.940Z,4.68
2023-03-18T10:47:13.473Z,5.63
2023-03-18T10:49:43.571Z,7.53
2023-03-18T10:52:19.148Z,6.30
2023-03-18T10:54:50.589Z,4.95
2023-03-18T10:57:20.054Z,4.93
2023-03-18T10:59:47.862Z,4.70
2023-03-18T11:02:19.701Z,5.35
2023-03-18T11:04:49.820Z,3.13
2023-03-18T11:07:20.171Z,3.22
2023-03-18T11:09:48.157Z,4.53
2023-03-18T11:12:18.975Z,5.88
2023-03-18T11:14:48.715Z,5.25
2023-03-18T11:17:20.816Z,4.72
2023-03-18T11:19:49.489Z,3.80
2023-03-18T11:22:21.646Z,5.55
2023-03-18T11:25:06.169Z,4.97
2023-03-18T11:27:39.316Z,6.57
2023-03-18T11:30:21.462Z,4.45
2023-03-18T11:32:59.641Z,5.30
2023-03-18T11:35:33.516Z,4.10
2023-03-18T11:38:05.341Z,4.00
2023-03-18T11:40:33.812Z,2.70
2023-03-18T11:43:14.912Z,4.00
2023-03-18T11:45:45.023Z,5.25
2023-03-18T11:48:17.070Z,4.07
2023-03-18T11:50:53.147Z,5.95
2023-03-18T11:53:26.844Z,7.40
2023-03-18T11:55:59.815Z,3.35
2023-03-18T11:58:33.420Z,7.22
2023-03-18T12:01:06.728Z,2.95
2023-03-18T12:03:49.704Z,3.37
2023-03-18T12:06:22.341Z,3.20
2023-03-18T12:09:01.756Z,4.18
2023-03-18T12:11:36.012Z,2.47
2023-03-18T12:14:08.252Z,3.75
2023-03-18T12:16:41.515Z,3.17
2023-03-18T12:19:14.275Z,5.10
2023-03-18T12:21:49.746Z,4.07
2023-03-18T12:24:27.492Z,3.40
2023-03-18T12:26:59.696Z,9.65
2023-03-18T12:29:38.606Z,4.85
2023-03-18T12:32:11.218Z,4.75
2023-03-18T12:34:55.629Z,3.97
2023-03-18T12:40:16.685Z,3.30
2023-03-18T12:42:52.310Z,4.82
2023-03-18T12:45:20.875Z,4.57
2023-03-18T12:47:49.894Z,4.05
2023-03-18T12:50:19.505Z,3.70
2023-03-18T12:52:48.773Z,6.78
2023-03-18T12:55:17.942Z,5.13
2023-03-18T12:57:47.637Z,8.05
2023-03-18T13:00:23.891Z,8.15
2023-03-18T13:03:06.126Z,4.75
2023-03-18T13:05:38.283Z,3.83
2023-03-18T13:08:29.596Z,4.55
2023-03-18T13:11:01.922Z,6.07
2023-03-18T13:13:31.148Z,6.95
2023-03-18T13:18:58.395Z,4.40
2023-03-18T13:21:30.513Z,4.10
2023-03-18T13:24:06.658Z,9.00
2023-03-18T13:26:45.352Z,7.07
2023-03-18T13:29:17.747Z,4.60
2023-03-18T13:31:52.340Z,5.75
2023-03-18T13:34:50.092Z,3.38
2023-03-18T13:37:28.966Z,6.80
2023-03-18T13:40:21.653Z,4.07
2023-03-18T13:42:50.305Z,4.45
2023-03-18T13:45:22.978Z,13.30
2023-03-18T13:47:58.534Z,5.47
2023-03-18T13:50:34.749Z,4.30
2023-03-18T13:53:04.122Z,3.58
2023-03-18T13:55:37.898Z,3.75
2023-03-18T13:58:22.880Z,5.28
2023-03-18T14:01:13.539Z,3.63
2023-03-18T14:03:57.362Z,6.13
2023-03-18T14:06:26.519Z,5.73
2023-03-18T14:08:56.852Z,3.72
2023-03-18T14:11:51.174Z,4.55
2023-03-18T14:14:37.220Z,6.68
2023-03-18T14:17:05.433Z,6.65
2023-03-18T14:19:34.401Z,6.25
2023-03-18T14:22:08.964Z,5.28
2023-03-18T14:24:36.718Z,4.18
2023-03-18T14:27:11.605Z,7.35
2023-03-18T14:29:40.241Z,8.73
2023-03-18T14:32:27.998Z,6.97
2023-03-18T14:34:58.725Z,3.33
2023-03-18T14:37:27.663Z,3.63
2023-03-18T14:39:56.442Z,6.47
2023-03-18T14:42:30.162Z,7.65
2023-03-18T14:45:02.116Z,6.38
2023-03-18T14:47:39.533Z,6.95
2023-03-18T14:50:15.133Z,7.05
2023-03-18T14:52:43.865Z,3.42
2023-03-18T14:55:18.100Z,5.70
2023-03-18T15:00:15.326Z,5.63
2023-03-18T15:02:43.389Z,3.60
2023-03-18T15:05:18.913Z,5.22
2023-03-18T15:07:50.822Z,5.05
2023-03-18T15:10:21.979Z,3.65
2023-03-18T15:12:57.807Z,3.60
2023-03-18T15:15:25.550Z,5.30
2023-03-18T15:17:54.012Z,3.75
2023-03-18T15:20:24.131Z,3.38
2023-03-18T15:22:51.920Z,5.95
2023-03-18T15:25:21.295Z,4.72
2023-03-18T15:27:50.092Z,5.22
2023-03-18T15:30:24.531Z,5.30
2023-03-18T15:32:52.693Z,8.50
2023-03-18T15:35:22.219Z,5.05
2023-03-18T15:38:03.109Z,4.82
2023-03-18T15:40:32.102Z,5.85
2023-03-18T15:43:03.988Z,4.32
2023-03-18T15:45:32.963Z,6.93
2023-03-18T15:48:08.290Z,3.15
2023-03-18T15:50:37.021Z,4.10
2023-03-18T15:53:18.813Z,6.22
2023-03-18T15:55:50.808Z,7.68
2023-03-18T15:58:27.028Z,5.75
2023-03-18T16:00:55.917Z,6.78
2023-03-18T16:03:24.786Z,7.90
2023-03-18T16:05:53.199Z,4.55
2023-03-18T16:08:23.438Z,7.07
2023-03-18T16:10:51.938Z,5.90
2023-03-18T16:13:24.650Z,8.45
2023-03-18T16:15:52.705Z,7.60
2023-03-18T16:18:21.052Z,4.93
2023-03-18T16:20:49.539Z,9.48
2023-03-18T16:23:17.754Z,10.32
2023-03-18T16:25:47.979Z,8.07
2023-03-18T16:28:20.759Z,7.72
2023-03-18T16:30:49.109Z,9.48
2023-03-18T16:33:18.094Z,8.30
2023-03-18T16:35:47.288Z,7.03
2023-03-18T16:38:16.439Z,5.88
2023-03-18T16:40:44.740Z,9.25
2023-03-18T16:43:18.206Z,9.50
2023-03-18T16:45:47.282Z,11.00
2023-03-18T16:48:15.952Z,8.93
2023-03-18T16:50:45.256Z,7.50
2023-03-18T16:53:17.365Z,10.38
2023-03-18T16:55:45.858Z,12.82
2023-03-18T16:58:17.332Z,11.20
2023-03-18T17:00:51.260Z,10.00
2023-03-18T17:03:19.772Z,13.32
2023-03-18T17:05:48.834Z,19.25
2023-03-18T17:08:16.438Z,14.15
2023-03-18T17:10:44.519Z,14.40
2023-03-18T17:13:16.615Z,10.60
2023-03-18T17:15:44.962Z,14.23
2023-03-18T17:18:15.959Z,11.48
2023-03-18T17:20:45.892Z,14.10
2023-03-18T17:23:15.867Z,17.00
2023-03-18T17:25:48.384Z,10.95
2023-03-18T17:28:18.551Z,19.52
2023-03-18T17:30:49.673Z,18.70
2023-03-18T17:33:21.611Z,14.50
2023-03-18T17:35:49.167Z,14.48
2023-03-18T17:38:17.559Z,16.27
2023-03-18T17:40:47.720Z,15.15
2023-03-18T17:43:24.649Z,13.50
2023-03-18T17:45:52.431Z,16.83
2023-03-18T17:48:24.169Z,17.50
2023-03-18T17:50:53.030Z,14.57
2023-03-18T17:53:52.282Z,15.20
2023-03-18T17:56:22.362Z,18.80
2023-03-18T17:58:51.272Z,15.90
2023-03-18T18:01:22.294Z,18.17
2023-03-18T18:03:51.543Z,18.52
2023-03-18T18:06:20.217Z,23.95
2023-03-18T18:09:02.448Z,18.48
2023-03-18T18:11:31.220Z,20.75
2023-03-18T18:14:06.524Z,22.73
2023-03-18T18:16:40.630Z,21.83
2023-03-18T18:19:23.533Z,20.73
2023-03-18T18:21:51.687Z,19.98
2023-03-18T18:24:22.768Z,20.45
2023-03-18T18:26:55.497Z,24.25
2023-03-18T18:29:28.167Z,29.00
2023-03-18T18:32:00.368Z,26.42
2023-03-18T18:34:32.176Z,22.05
2023-03-18T18:37:02.295Z,25.73
2023-03-18T18:39:31.950Z,24.98
2023-03-18T18:42:02.000Z,20.00
2023-03-18T18:44:37.517Z,22.17
2023-03-18T18:47:05.428Z,24.42
2023-03-18T18:49:36.197Z,26.35
2023-03-18T18:52:04.082Z,34.42
2023-03-18T18:54:32.873Z,36.95
2023-03-18T18:57:03.664Z,24.02
2023-03-18T18:59:33.658Z,30.30
2023-03-18T19:02:01.771Z,29.63
2023-03-18T19:04:29.363Z,30.92
2023-03-18T19:06:59.276Z,32.95
2023-03-18T19:09:27.522Z,30.17
2023-03-18T19:11:56.164Z,38.15
2023-03-18T19:14:25.565Z,38.13
2023-03-18T19:16:54.638Z,49.97
2023-03-18T19:19:22.733Z,38.55
2023-03-18T19:21:51.185Z,42.20
2023-03-18T19:24:33.761Z,48.28
2023-03-18T19:27:04.192Z,44.55
2023-03-18T19:29:32.762Z,43.88
2023-03-18T19:32:01.446Z,45.03
2023-03-18T19:34:32.353Z,47.47
2023-03-18T19:37:02.636Z,47.63
2023-03-18T19:39:30.872Z,48.40
2023-03-18T19:41:58.464Z,47.38
2023-03-18T19:44:30.970Z,50.88
2023-03-18T19:50:17.537Z,58.38
2023-03-18T19:52:46.670Z,66.18
2023-03-18T19:55:15.558Z,71.85
2023-03-18T19:57:44.814Z,72.97
2023-03-18T20:00:23.553Z,79.03
2023-03-18T20:02:55.497Z,77.90
2023-03-18T20:05:24.036Z,69.15
2023-03-18T20:07:54.572Z,74.63
2023-03-18T20:10:22.309Z,66.03
2023-03-18T20:12:59.333Z,75.88
2023-03-18T20:15:32.078Z,70.47
2023-03-18T20:18:00.919Z,85.53
2023-03-18T20:23:23.714Z,95.18
2023-03-18T20:25:52.431Z,83.13
2023-03-18T20:34:09.877Z,79.72
2023-03-18T20:36:44.293Z,87.78
2023-03-18T20:39:18.812Z,97.30
2023-03-18T20:41:46.925Z,95.35
2023-03-18T20:44:15.034Z,79.13
2023-03-18T20:46:44.045Z,77.35
2023-03-18T20:49:13.383Z,62.40
2023-03-18T20:51:52.589Z,61.50
2023-03-18T20:54:25.531Z,50.88
2023-03-18T20:59:51.618Z,64.05
2023-03-18T21:02:27.399Z,52.25
2023-03-18T21:07:48.539Z,77.57
2023-03-18T21:10:17.215Z,69.47
2023-03-18T21:13:06.953Z,76.07
2023-03-18T21:24:34.151Z,70.15
2023-03-18T21:27:05.998Z,80.13
2023-03-18T21:29:35.948Z,77.22
2023-03-18T21:32:05.501Z,81.10
2023-03-18T21:34:34.336Z,69.57
2023-03-18T21:37:01.908Z,71.40
2023-03-18T21:39:29.957Z,78.00
2023-03-18T21:41:58.068Z,71.95
2023-03-18T21:44:25.909Z,77.93
2023-03-18T21:46:54.587Z,67.40
2023-03-18T21:49:22.802Z,62.65
2023-03-18T21:51:54.013Z,56.85
2023-03-18T21:54:39.424Z,60.95
2023-03-18T21:57:13.434Z,49.80
2023-03-18T22:00:02.145Z,57.45
2023-03-18T22:02:30.974Z,55.13
2023-03-18T22:04:59.658Z,59.35
2023-03-18T22:07:29.165Z,71.00
2023-03-18T22:10:07.131Z,65.20
2023-03-18T22:12:35.257Z,60.75
2023-03-18T22:15:02.868Z,55.97
2023-03-18T22:17:35.837Z,47.90
2023-03-18T22:20:04.933Z,47.45
2023-03-18T22:25:29.736Z,58.78
2023-03-18T22:27:57.404Z,49.45
2023-03-18T22:30:25.144Z,56.22
2023-03-18T22:32:53.726Z,57.55
2023-03-18T22:35:43.530Z,48.85
2023-03-18T22:38:14.072Z,44.33
2023-03-18T22:40:49.704Z,47.97
2023-03-18T22:43:32.880Z,51.53
2023-03-18T22:46:01.418Z,52.60
2023-03-18T22:48:38.183Z,59.22
2023-03-18T22:51:17.374Z,59.15
2023-03-18T22:53:55.599Z,47.38
2023-03-18T22:56:27.489Z,51.70
2023-03-18T22:58:55.720Z,43.92
2023-03-18T23:01:32.080Z,52.20
2023-03-18T23:04:00.500Z,62.30
2023-03-18T23:06:36.568Z,68.10
2023-03-18T23:12:12.789Z,70.18
2023-03-18T23:15:01.668Z,68.28
2023-03-18T23:17:42.846Z,69.88
2023-03-18T23:20:11.575Z,55.60
2023-03-18T23:22:46.526Z,62.20
2023-03-18T23:25:20.288Z,78.85
2023-03-18T23:27:47.902Z,70.78
2023-03-18T23:30:30.359Z,74.72
2023-03-18T23:32:58.247Z,66.65
2023-03-18T23:36:01.176Z,63.22
2023-03-18T23:38:32.214Z,76.88
2023-03-18T23:41:08.568Z,62.72
2023-03-18T23:43:47.521Z,61.25
2023-03-18T23:46:17.613Z,73.15
2023-03-18T23:48:52.727Z,64.25
2023-03-18T23:51:20.514Z,57.13
2023-03-18T23:53:50.138Z,60.25
2023-03-18T23:56:23.758Z,58.35
2023-03-18T23:58:56.049Z,61.28
